Whitetown, Arkansas
Current Conditions -  °F | °C
As of 12:53 PM on Friday 21 Nov 2014 (Local Time) from KMWT Reporting Station
Light Rain Light Rain  
Wind Chill: 50°   Ceiling: 400
Heat Index: 50°   Visibility: 1.5mi
Dew Point: 48°   Wind: 5mph
Humidity: 93%   Direction: NA
Pressure: 30.18"   Gusts: NA
Location:  34.6364°N, 93.829°W
Report Text: KMWT 211853Z AUTO VRB04KT 1 1/2SM -RA BR OVC004 10/09 A3018 RMK AO2 SLP226 P0003 T01000089
Loading
Personal Weather Stations






























Interactive Weather Map New forecast layout! Learn more

10-Day Weather Forecast

Advertisements
Track Severe Weather on mobile